Time;durP1;ratioP1;P1;durP2;ratioP2;P2;SDS_P1;SDS_P2;PMS_P1;PMS_P2;Temp;Humidity;BMP_temperature;BMP_pressure;BME280_temperature;BME280_humidity;BME280_pressure;Samples;Min_cycle;Max_cycle;Signal;HPM_P1;HPM_P2
2022/10/31 00:00:51;;;;;;;6.40;4.30;;;;;;;17.56;41.40;101561.81;4987551;28;20889;-78
2022/10/31 00:03:17;;;;;;;8.85;4.50;;;;;;;17.55;41.50;101550.25;4967200;28;20899;-80
2022/10/31 00:05:45;;;;;;;6.63;4.20;;;;;;;17.56;41.44;101553.78;4976947;28;20387;-80
2022/10/31 00:08:11;;;;;;;7.22;4.22;;;;;;;17.57;41.50;101553.59;4968879;28;20427;-80
2022/10/31 00:10:41;;;;;;;9.32;4.60;;;;;;;17.61;41.50;101551.34;4972153;28;20384;-80
2022/10/31 00:13:08;;;;;;;7.82;4.72;;;;;;;17.62;41.58;101555.66;4977014;28;20390;-80
2022/10/31 00:15:35;;;;;;;7.60;4.70;;;;;;;17.65;41.53;101555.28;4977204;28;20398;-80
2022/10/31 00:18:01;;;;;;;8.70;4.60;;;;;;;17.66;41.40;101546.19;4975646;28;20457;-80
2022/10/31 00:20:26;;;;;;;9.00;4.47;;;;;;;17.76;41.22;101545.88;4980495;28;20953;-80
2022/10/31 00:22:52;;;;;;;8.73;5.20;;;;;;;17.86;41.06;101557.09;4973116;28;20431;-78
2022/10/31 00:25:17;;;;;;;8.87;5.10;;;;;;;17.95;40.73;101561.28;4975475;28;20728;-79
2022/10/31 00:27:45;;;;;;;7.75;4.60;;;;;;;18.07;40.74;101566.06;4975920;28;20402;-79
2022/10/31 00:30:11;;;;;;;7.35;4.68;;;;;;;18.08;40.65;101557.84;4976188;28;20857;-79
2022/10/31 00:32:37;;;;;;;6.70;4.60;;;;;;;18.11;40.46;101554.75;4976612;28;20491;-79
2022/10/31 00:35:02;;;;;;;9.07;4.80;;;;;;;18.12;40.50;101560.94;5008156;28;20423;-79
2022/10/31 00:37:28;;;;;;;8.25;5.20;;;;;;;18.17;40.41;101576.44;4976122;28;20401;-80
2022/10/31 00:39:53;;;;;;;9.60;4.97;;;;;;;18.15;40.24;101571.28;4975508;28;20391;-79
2022/10/31 00:42:19;;;;;;;7.80;4.67;;;;;;;18.15;40.31;101566.75;4976760;28;20721;-79
2022/10/31 00:44:44;;;;;;;7.88;4.85;;;;;;;17.99;40.80;101569.75;4974952;28;20375;-79
2022/10/31 00:47:10;;;;;;;8.73;4.97;;;;;;;17.78;41.36;101565.28;4975286;28;20408;-78
2022/10/31 00:49:35;;;;;;;9.70;5.20;;;;;;;17.62;42.07;101578.97;4974973;28;20864;-77
2022/10/31 00:52:00;;;;;;;8.67;5.37;;;;;;;17.45;42.45;101563.19;4974885;28;20388;-78
2022/10/31 00:54:26;;;;;;;13.13;7.20;;;;;;;17.48;42.40;101554.75;4975468;28;20725;-80
2022/10/31 00:56:51;;;;;;;10.82;5.85;;;;;;;17.41;42.51;101555.72;4974461;28;20402;-79
2022/10/31 00:59:17;;;;;;;11.57;5.37;;;;;;;17.41;42.47;101561.91;4983139;28;20453;-79
2022/10/31 01:01:42;;;;;;;10.10;5.20;;;;;;;17.36;42.73;101551.78;4968899;28;20414;-80
2022/10/31 01:04:08;;;;;;;8.07;5.33;;;;;;;17.42;42.63;101550.19;4975458;28;20575;-78
2022/10/31 01:06:33;;;;;;;11.47;4.93;;;;;;;17.46;42.51;101554.13;4979657;28;20398;-80
2022/10/31 01:08:59;;;;;;;9.77;5.30;;;;;;;17.54;42.26;101556.66;4978464;28;20392;-80
2022/10/31 01:11:24;;;;;;;10.00;5.00;;;;;;;17.62;41.97;101557.53;4979877;28;20462;-80
2022/10/31 01:13:52;;;;;;;10.20;4.93;;;;;;;17.70;42.05;101565.41;4979774;28;20395;-79
2022/10/31 01:16:20;;;;;;;11.80;5.18;;;;;;;17.85;41.46;101559.94;4979770;28;20487;-79
2022/10/31 01:18:46;;;;;;;8.40;5.32;;;;;;;17.92;41.32;101559.00;4975842;28;20404;-79
2022/10/31 01:21:14;;;;;;;10.50;5.50;;;;;;;17.90;41.43;101570.94;4966521;28;20426;-79
2022/10/31 01:23:41;;;;;;;11.27;5.65;;;;;;;17.85;41.32;101574.22;4978247;28;20411;-79
2022/10/31 01:26:13;;;;;;;9.60;5.25;;;;;;;17.99;40.98;101560.88;4979079;28;20387;-79
2022/10/31 01:28:45;;;;;;;8.80;5.20;;;;;;;18.12;40.70;101560.94;4974165;28;20411;-79
2022/10/31 01:31:10;;;;;;;9.00;4.90;;;;;;;18.09;40.61;101566.69;4979359;28;20426;-79
2022/10/31 01:33:36;;;;;;;7.60;5.10;;;;;;;17.87;41.34;101566.78;4977919;28;20407;-79
2022/10/31 01:36:31;;;;;;;7.57;4.80;;;;;;;17.79;41.76;101558.88;4978309;28;20383;-80
2022/10/31 01:39:00;;;;;;;8.50;5.13;;;;;;;17.77;41.52;101564.44;4977680;28;20396;-79
2022/10/31 01:41:28;;;;;;;8.32;5.05;;;;;;;17.78;41.47;101568.78;4978028;28;20391;-79
2022/10/31 01:44:00;;;;;;;8.23;4.75;;;;;;;17.82;41.46;101565.69;4979098;28;20402;-78
2022/10/31 01:46:37;;;;;;;8.57;5.00;;;;;;;17.89;41.22;101567.41;4978568;28;20453;-78
2022/10/31 01:49:09;;;;;;;9.87;4.93;;;;;;;17.98;40.86;101570.78;4969383;28;20392;-78
2022/10/31 01:51:38;;;;;;;8.30;5.00;;;;;;;18.11;40.66;101578.06;4978708;28;20454;-78
2022/10/31 01:54:11;;;;;;;7.63;4.95;;;;;;;18.12;40.69;101569.81;4978035;28;20545;-78
2022/10/31 01:56:40;;;;;;;8.07;4.90;;;;;;;18.14;40.47;101561.56;4976984;28;20383;-79
2022/10/31 01:59:09;;;;;;;7.82;4.97;;;;;;;18.14;40.58;101565.06;4976661;28;20410;-78
2022/10/31 02:01:36;;;;;;;9.05;4.93;;;;;;;18.02;40.79;101572.03;4978266;28;20384;-80
2022/10/31 02:04:02;;;;;;;8.35;4.90;;;;;;;17.94;40.92;101566.84;4979116;28;20441;-78
2022/10/31 02:06:58;;;;;;;8.90;5.10;;;;;;;17.86;41.16;101585.75;4976641;28;20411;-79
2022/10/31 02:09:25;;;;;;;8.50;5.47;;;;;;;17.85;41.14;101584.94;4978866;28;20400;-79
2022/10/31 02:11:57;;;;;;;6.75;4.60;;;;;;;17.75;41.41;101585.28;4979247;28;20380;-79
2022/10/31 02:14:25;;;;;;;12.40;5.50;;;;;;;17.75;41.89;101587.09;4979163;28;21141;-80
2022/10/31 02:16:50;;;;;;;8.35;5.18;;;;;;;17.62;42.54;101585.16;4978620;28;20404;-79
2022/10/31 02:19:29;;;;;;;10.48;5.47;;;;;;;17.61;42.62;101588.88;4977366;28;20403;-80
2022/10/31 02:22:04;;;;;;;9.43;5.53;;;;;;;17.60;42.84;101597.13;4964614;28;20423;-79
2022/10/31 02:24:54;;;;;;;12.13;5.57;;;;;;;17.57;43.04;101587.59;4976454;28;20394;-79
2022/10/31 02:28:04;;;;;;;10.23;6.10;;;;;;;17.57;43.43;101590.28;4969017;28;20391;-80
2022/10/31 02:30:41;;;;;;;9.57;5.68;;;;;;;17.63;43.02;101585.97;4977333;28;20411;-79
2022/10/31 02:33:16;;;;;;;9.40;5.40;;;;;;;17.60;43.03;101599.81;4977168;28;20555;-79
2022/10/31 02:36:16;;;;;;;7.70;5.00;;;;;;;17.45;42.71;101590.00;4978794;28;20387;-79
2022/10/31 02:38:57;;;;;;;8.23;5.20;;;;;;;17.41;42.72;101588.72;4975993;28;20394;-79
2022/10/31 02:41:50;;;;;;;12.23;8.02;;;;;;;17.27;42.72;101579.75;4977977;28;20391;-79
2022/10/31 02:44:38;;;;;;;8.30;5.83;;;;;;;17.28;42.64;101578.72;4978444;28;20411;-79
2022/10/31 02:47:09;;;;;;;10.70;5.70;;;;;;;17.26;42.81;101582.63;4977204;28;20371;-79
2022/10/31 02:49:59;;;;;;;10.60;5.38;;;;;;;17.26;42.63;101587.97;4978325;28;20394;-78
2022/10/31 02:52:30;;;;;;;8.15;5.50;;;;;;;17.22;42.71;101594.75;4977349;28;20433;-79
2022/10/31 02:54:56;;;;;;;8.63;5.30;;;;;;;17.18;42.69;101589.78;4976205;28;20387;-78
2022/10/31 02:57:34;;;;;;;8.90;5.57;;;;;;;17.25;42.64;101592.50;4977811;28;20388;-79
2022/10/31 03:00:08;;;;;;;10.68;5.20;;;;;;;17.15;42.78;101594.69;4976912;28;20560;-79
2022/10/31 03:02:51;;;;;;;14.10;5.22;;;;;;;17.09;42.81;101603.50;4978746;28;20407;-79
2022/10/31 03:05:33;;;;;;;10.85;5.07;;;;;;;17.04;43.27;101601.38;4975974;28;20438;-79
2022/10/31 03:08:04;;;;;;;7.65;5.07;;;;;;;17.04;43.21;101603.25;4979743;28;20395;-79
2022/10/31 03:10:41;;;;;;;12.13;5.83;;;;;;;17.04;43.37;101613.94;4976285;28;20407;-78
2022/10/31 03:13:13;;;;;;;10.15;5.30;;;;;;;17.03;43.34;101618.47;4975475;28;20383;-79
2022/10/31 03:15:44;;;;;;;8.68;4.90;;;;;;;17.07;43.26;101606.38;4975995;28;20481;-79
2022/10/31 03:18:26;;;;;;;8.83;4.97;;;;;;;17.11;43.15;101604.13;4977239;28;20396;-79
2022/10/31 03:20:59;;;;;;;10.20;4.90;;;;;;;17.13;43.13;101621.66;4974135;28;20403;-80
2022/10/31 03:23:26;;;;;;;7.87;5.10;;;;;;;17.15;43.01;101619.63;4975548;28;20422;-78
2022/10/31 03:25:54;;;;;;;11.65;5.47;;;;;;;17.17;42.85;101619.44;4976360;28;20398;-78
2022/10/31 03:28:27;;;;;;;10.27;5.82;;;;;;;17.28;42.64;101620.75;4976262;28;20402;-78
2022/10/31 03:30:54;;;;;;;8.60;5.38;;;;;;;17.32;42.43;101619.34;4974711;28;20828;-78
2022/10/31 03:33:28;;;;;;;9.75;5.57;;;;;;;17.29;42.37;101612.53;4977098;28;20379;-78
2022/10/31 03:35:58;;;;;;;9.50;5.28;;;;;;;17.32;42.42;101619.34;4975041;28;20913;-79
2022/10/31 03:38:23;;;;;;;8.60;5.47;;;;;;;17.35;42.32;101621.66;4975952;28;20737;-78
2022/10/31 03:40:53;;;;;;;8.27;5.33;;;;;;;17.42;42.07;101611.81;4976419;28;20876;-79
2022/10/31 03:43:24;;;;;;;9.95;6.47;;;;;;;17.49;41.88;101625.28;4976060;28;20490;-78
2022/10/31 03:45:49;;;;;;;9.25;5.60;;;;;;;17.49;42.01;101619.94;4808295;28;20478;-79
2022/10/31 03:48:19;;;;;;;9.20;5.90;;;;;;;17.52;41.82;101623.03;5005241;28;20400;-78
2022/10/31 03:50:47;;;;;;;9.10;5.60;;;;;;;17.53;41.82;101621.19;5002413;28;20380;-78
2022/10/31 03:53:59;;;;;;;8.30;5.40;;;;;;;17.51;42.02;101629.41;5003609;28;20939;-79
2022/10/31 03:56:30;;;;;;;8.65;5.97;;;;;;;17.51;41.81;101628.59;5004088;28;20493;-78
2022/10/31 03:59:04;;;;;;;8.97;5.50;;;;;;;17.49;41.81;101620.75;5016853;28;20866;-78
2022/10/31 04:01:34;;;;;;;10.05;5.90;;;;;;;17.48;41.90;101624.44;5009982;28;20390;-78
2022/10/31 04:04:01;;;;;;;9.18;5.63;;;;;;;17.49;41.77;101619.94;5008505;28;20403;-78
2022/10/31 04:06:28;;;;;;;7.53;5.20;;;;;;;17.49;41.76;101623.44;5009472;28;20378;-78
2022/10/31 04:09:00;;;;;;;9.70;5.47;;;;;;;17.37;42.10;101620.44;5008183;28;20386;-78
2022/10/31 04:11:30;;;;;;;10.35;5.53;;;;;;;17.34;42.38;101618.16;5005049;28;20394;-79
2022/10/31 04:13:59;;;;;;;7.82;5.45;;;;;;;17.40;42.29;101619.22;5007883;28;20388;-78
2022/10/31 04:16:26;;;;;;;10.10;5.30;;;;;;;17.45;42.16;101619.47;5002757;28;20933;-77
2022/10/31 04:18:53;;;;;;;9.07;5.57;;;;;;;17.53;41.88;101615.81;5015354;28;20416;-79
2022/10/31 04:21:18;;;;;;;10.80;7.00;;;;;;;17.59;41.52;101620.41;5013219;28;20798;-79
2022/10/31 04:23:44;;;;;;;10.98;7.50;;;;;;;17.62;41.60;101625.38;5011973;28;20415;-79
2022/10/31 04:26:12;;;;;;;13.40;9.87;;;;;;;17.62;41.61;101622.69;5009722;28;20390;-78
2022/10/31 04:28:38;;;;;;;11.10;8.48;;;;;;;17.60;41.65;101622.06;5010215;28;20517;-79
2022/10/31 04:31:04;;;;;;;13.80;8.27;;;;;;;17.53;41.76;101621.19;4987020;28;20432;-79
2022/10/31 04:33:30;;;;;;;14.30;9.40;;;;;;;17.55;41.81;101621.81;5003394;28;20390;-79
2022/10/31 04:35:56;;;;;;;12.60;9.80;;;;;;;17.52;41.82;101620.38;5008733;28;20384;-77
2022/10/31 04:38:21;;;;;;;12.32;8.27;;;;;;;17.53;41.73;101623.88;5018421;28;20396;-81
2022/10/31 04:40:47;;;;;;;11.93;6.30;;;;;;;17.45;41.78;101616.81;5013626;28;20392;-78
2022/10/31 04:43:12;;;;;;;13.82;6.63;;;;;;;17.45;41.71;101622.16;5046276;28;20401;-78
2022/10/31 04:45:38;;;;;;;10.53;6.47;;;;;;;17.46;41.62;101623.81;5021065;28;20397;-78
2022/10/31 04:48:04;;;;;;;13.50;7.32;;;;;;;17.42;41.77;101617.19;5009433;28;20428;-79
2022/10/31 04:50:29;;;;;;;12.32;6.63;;;;;;;17.39;41.83;101612.19;5021276;28;20393;-79
2022/10/31 04:52:55;;;;;;;12.93;6.87;;;;;;;17.19;42.49;101622.75;5001210;28;20372;-79
2022/10/31 04:55:20;;;;;;;15.27;7.03;;;;;;;17.20;42.37;101625.22;5009397;28;20461;-79
2022/10/31 04:57:48;;;;;;;10.73;6.90;;;;;;;17.18;42.18;101624.59;5006132;28;20397;-79
2022/10/31 05:00:16;;;;;;;13.10;6.80;;;;;;;17.22;42.19;101629.59;5004424;28;20378;-78
2022/10/31 05:02:52;;;;;;;9.90;5.80;;;;;;;17.19;42.08;101620.06;4990113;28;20421;-78
2022/10/31 05:05:20;;;;;;;9.87;5.63;;;;;;;17.20;42.11;101637.81;5007814;28;20386;-77
2022/10/31 05:07:47;;;;;;;8.98;5.88;;;;;;;17.16;42.16;101631.16;5008385;28;20738;-78
2022/10/31 05:10:19;;;;;;;9.50;5.80;;;;;;;17.07;42.24;101629.63;5005421;28;20385;-77
2022/10/31 05:13:01;;;;;;;13.73;6.93;;;;;;;17.03;42.64;101637.22;5028402;28;20393;-81
2022/10/31 05:15:28;;;;;;;11.33;7.20;;;;;;;16.95;42.73;101638.16;5023167;28;20390;-78
2022/10/31 05:17:54;;;;;;;11.82;6.60;;;;;;;16.94;42.87;101624.97;5004348;28;20809;-79
2022/10/31 05:20:22;;;;;;;15.25;7.03;;;;;;;17.00;42.62;101634.94;4995554;28;20395;-78
2022/10/31 05:22:55;;;;;;;15.32;7.00;;;;;;;16.96;42.88;101638.97;5004802;28;20424;-79
2022/10/31 05:25:24;;;;;;;14.97;6.40;;;;;;;16.97;42.77;101640.66;5007433;28;20386;-79
2022/10/31 05:27:51;;;;;;;13.10;6.20;;;;;;;16.97;42.83;101649.50;5004187;28;20389;-77
2022/10/31 05:30:22;;;;;;;10.20;7.07;;;;;;;17.01;42.79;101647.28;5009322;28;20382;-80
2022/10/31 05:32:49;;;;;;;10.50;6.13;;;;;;;17.02;42.79;101646.28;5007503;28;20382;-80
2022/10/31 05:35:30;;;;;;;9.93;6.13;;;;;;;17.08;42.61;101650.88;5020845;28;20491;-79
2022/10/31 05:38:00;;;;;;;10.20;5.95;;;;;;;17.07;42.63;101656.41;5007113;28;20897;-80
2022/10/31 05:40:27;;;;;;;10.38;6.05;;;;;;;17.05;42.68;101661.13;5006335;28;20378;-79
2022/10/31 05:42:54;;;;;;;11.13;6.67;;;;;;;17.00;42.70;101657.19;5005406;28;20501;-79
2022/10/31 05:45:20;;;;;;;14.83;7.53;;;;;;;17.04;42.83;101656.81;5036880;28;20394;-80
2022/10/31 05:47:57;;;;;;;14.93;7.80;;;;;;;17.11;42.63;101669.25;5007740;28;20396;-79
2022/10/31 05:50:23;;;;;;;12.48;7.55;;;;;;;17.14;42.62;101674.22;5005683;28;20377;-79
2022/10/31 05:53:04;;;;;;;19.17;13.75;;;;;;;17.15;42.58;101672.38;5007320;28;20730;-81
2022/10/31 05:55:31;;;;;;;23.42;15.52;;;;;;;17.22;42.45;101673.28;5004699;28;20385;-79
2022/10/31 05:57:56;;;;;;;21.97;14.60;;;;;;;17.26;42.41;101671.03;5006660;28;20382;-81
2022/10/31 06:00:23;;;;;;;20.07;13.97;;;;;;;17.31;42.37;101679.34;5007285;28;20405;-79
2022/10/31 06:02:49;;;;;;;18.65;11.18;;;;;;;17.26;42.43;101671.88;5008374;28;20405;-80
2022/10/31 06:05:16;;;;;;;17.30;10.47;;;;;;;17.12;43.16;101670.88;4990757;28;20429;-79
2022/10/31 06:07:41;;;;;;;16.08;8.60;;;;;;;17.07;43.58;101672.47;5007857;28;21007;-79
2022/10/31 06:10:07;;;;;;;15.70;8.85;;;;;;;17.05;43.70;101678.06;5012241;28;20389;-80
2022/10/31 06:12:37;;;;;;;18.42;11.32;;;;;;;17.08;43.84;101679.50;5007416;28;20410;-79
2022/10/31 06:15:05;;;;;;;18.70;12.48;;;;;;;17.18;43.65;101672.00;5007216;28;20394;-79
2022/10/31 06:17:37;;;;;;;21.50;13.98;;;;;;;17.34;43.26;101679.78;5009924;28;20390;-79
2022/10/31 06:20:04;;;;;;;24.03;14.73;;;;;;;17.51;42.87;101683.03;5011356;28;20429;-78
2022/10/31 06:22:30;;;;;;;23.43;14.57;;;;;;;17.64;42.74;101686.84;4993561;28;20452;-80
2022/10/31 06:24:59;;;;;;;23.23;14.07;;;;;;;17.73;42.50;101680.34;5003002;28;20467;-81
2022/10/31 06:27:27;;;;;;;21.93;13.63;;;;;;;17.81;42.31;101684.72;5020628;28;20385;-79
2022/10/31 06:29:53;;;;;;;23.77;12.20;;;;;;;17.80;42.17;101685.75;5040774;28;20390;-79
2022/10/31 06:32:19;;;;;;;22.97;14.10;;;;;;;17.82;42.44;101683.72;5006223;28;20398;-79
2022/10/31 06:34:49;;;;;;;27.02;15.65;;;;;;;17.92;42.13;101693.13;5007301;28;20469;-80
2022/10/31 06:37:15;;;;;;;34.58;22.90;;;;;;;17.96;42.11;101691.69;5003924;28;20390;-80
2022/10/31 06:39:41;;;;;;;50.35;31.73;;;;;;;18.02;41.77;101697.31;5010174;28;20390;-81
2022/10/31 06:42:06;;;;;;;29.50;17.65;;;;;;;18.07;41.86;101703.75;5007676;28;20414;-80
2022/10/31 06:44:32;;;;;;;35.23;12.87;;;;;;;18.13;42.01;101705.66;5004666;28;20458;-80
2022/10/31 06:46:58;;;;;;;21.17;11.77;;;;;;;18.15;42.19;101706.28;5009252;28;20398;-78
2022/10/31 06:49:23;;;;;;;26.37;11.50;;;;;;;18.18;42.29;101713.09;5007590;28;20389;-79
2022/10/31 06:51:50;;;;;;;19.00;7.72;;;;;;;18.14;44.67;101711.84;5003925;28;20481;-78
2022/10/31 06:54:16;;;;;;;13.43;8.15;;;;;;;18.06;46.16;101711.97;5018894;28;20401;-79
2022/10/31 06:56:41;;;;;;;17.10;7.18;;;;;;;18.07;46.88;101709.09;5004100;28;20401;-81
2022/10/31 06:59:07;;;;;;;14.52;7.88;;;;;;;18.17;46.70;101708.78;5020803;28;20401;-78
2022/10/31 07:01:33;;;;;;;13.20;8.03;;;;;;;18.30;46.75;101710.72;5000705;28;20421;-80
2022/10/31 07:03:58;;;;;;;14.68;8.30;;;;;;;18.43;46.20;101712.66;5016596;28;20405;-79
2022/10/31 07:06:24;;;;;;;15.90;7.53;;;;;;;18.49;45.83;101701.97;5020050;28;20409;-78
2022/10/31 07:08:50;;;;;;;17.00;8.10;;;;;;;18.40;45.76;101699.59;5000431;28;20425;-80
2022/10/31 07:11:17;;;;;;;13.82;7.80;;;;;;;18.39;45.44;101689.91;4998002;28;20411;-79
2022/10/31 07:13:44;;;;;;;16.67;7.75;;;;;;;18.34;44.90;101688.63;5014855;28;20405;-79
2022/10/31 07:16:15;;;;;;;17.50;7.90;;;;;;;18.42;44.42;101684.13;5003353;28;20444;-78
2022/10/31 07:18:41;;;;;;;15.57;7.37;;;;;;;18.54;44.09;101678.00;5018996;28;20448;-81
2022/10/31 07:21:07;;;;;;;16.97;7.03;;;;;;;18.75;43.50;101692.38;5001615;28;20477;-80
2022/10/31 07:23:32;;;;;;;18.17;9.50;;;;;;;18.91;43.04;101691.22;5005574;28;20421;-80
2022/10/31 07:25:59;;;;;;;20.77;9.48;;;;;;;18.86;43.07;101689.13;5010142;28;20508;-79
2022/10/31 07:28:26;;;;;;;15.55;9.98;;;;;;;18.92;42.79;101690.16;5012883;28;20452;-80
2022/10/31 07:30:53;;;;;;;16.27;9.27;;;;;;;18.97;42.86;101692.25;5023748;28;20389;-78
2022/10/31 07:33:18;;;;;;;12.80;8.60;;;;;;;19.07;42.61;101687.34;5019623;28;20403;-81
2022/10/31 07:35:44;;;;;;;12.63;5.83;;;;;;;19.27;42.25;101688.22;5010284;28;20394;-79
2022/10/31 07:38:12;;;;;;;11.35;6.20;;;;;;;19.44;42.06;101690.50;5024468;28;20466;-79
2022/10/31 07:40:37;;;;;;;13.47;6.00;;;;;;;19.55;42.17;101689.06;5014897;28;20424;-79
2022/10/31 07:43:04;;;;;;;12.95;6.57;;;;;;;19.64;41.55;101682.44;5011540;28;20437;-79
2022/10/31 07:45:30;;;;;;;17.48;6.88;;;;;;;19.74;41.57;101679.41;5005132;28;20392;-81
2022/10/31 07:47:55;;;;;;;13.03;6.10;;;;;;;19.72;41.72;101679.56;5009182;28;20409;-80
2022/10/31 07:50:27;;;;;;;12.35;5.97;;;;;;;19.82;41.59;101681.84;5004203;28;20479;-80
2022/10/31 07:53:02;;;;;;;11.70;5.70;;;;;;;19.94;41.33;101680.19;5018463;28;20430;-80
2022/10/31 07:55:28;;;;;;;12.27;6.25;;;;;;;19.89;41.63;101687.25;5007985;28;20501;-78
2022/10/31 07:57:57;;;;;;;14.40;6.28;;;;;;;19.93;41.44;101683.91;5011112;28;20885;-79
2022/10/31 08:00:22;;;;;;;10.10;5.00;;;;;;;20.19;40.82;101691.13;5007498;28;20397;-80
2022/10/31 08:02:48;;;;;;;10.93;4.90;;;;;;;20.48;40.33;101691.69;5004458;28;20899;-79
2022/10/31 08:05:13;;;;;;;7.90;5.33;;;;;;;20.59;40.03;101682.94;5007229;28;20393;-79
2022/10/31 08:07:39;;;;;;;8.88;5.07;;;;;;;20.68;39.86;101690.81;5024572;28;20453;-78
2022/10/31 08:10:05;;;;;;;10.07;5.53;;;;;;;20.78;39.67;101685.81;5015840;28;20415;-80
2022/10/31 08:12:30;;;;;;;8.38;4.93;;;;;;;21.04;39.05;101695.63;5025810;28;20495;-79
2022/10/31 08:14:56;;;;;;;8.68;4.93;;;;;;;20.87;39.44;101684.53;5017154;28;20419;-80
2022/10/31 08:17:23;;;;;;;9.27;5.57;;;;;;;21.13;38.92;101688.13;5018401;28;20406;-79
2022/10/31 08:19:48;;;;;;;9.87;5.13;;;;;;;21.40;38.44;101688.75;5017066;28;20758;-81
2022/10/31 08:22:13;;;;;;;7.90;4.35;;;;;;;21.56;38.17;101682.84;5013687;28;20419;-79
2022/10/31 08:24:41;;;;;;;9.43;4.57;;;;;;;21.64;37.73;101686.34;5013582;28;20435;-80
2022/10/31 08:27:07;;;;;;;8.05;4.30;;;;;;;21.72;37.71;101677.97;5007064;28;20408;-78
2022/10/31 08:29:32;;;;;;;10.60;4.93;;;;;;;21.87;37.44;101677.63;5016844;28;20405;-78
2022/10/31 08:31:58;;;;;;;8.70;4.50;;;;;;;21.74;37.92;101678.56;5014503;28;20408;-79
2022/10/31 08:34:24;;;;;;;8.85;4.95;;;;;;;21.77;37.63;101676.25;4993552;28;20423;-80
2022/10/31 08:36:49;;;;;;;7.20;4.47;;;;;;;21.95;37.48;101674.66;5021915;28;20447;-81
2022/10/31 08:39:15;;;;;;;10.80;5.23;;;;;;;22.12;37.27;101659.50;5008035;28;20401;-80
2022/10/31 08:41:42;;;;;;;11.20;4.90;;;;;;;22.10;37.07;101658.09;5023931;28;20385;-81
2022/10/31 08:44:08;;;;;;;9.23;4.30;;;;;;;22.02;37.48;101663.78;5009424;28;20421;-79
2022/10/31 08:46:34;;;;;;;9.23;4.47;;;;;;;22.10;37.56;101663.50;5007252;28;20365;-80
2022/10/31 08:48:59;;;;;;;11.13;5.30;;;;;;;21.96;37.87;101657.41;5008440;28;20389;-80
2022/10/31 08:51:27;;;;;;;9.07;4.28;;;;;;;22.19;37.28;101659.44;5008546;28;20378;-79
2022/10/31 08:53:53;;;;;;;8.95;4.50;;;;;;;22.24;37.33;101662.31;5041041;28;20414;-82
2022/10/31 08:56:19;;;;;;;9.93;4.20;;;;;;;22.43;36.50;101668.53;5010288;28;20472;-79
2022/10/31 08:58:44;;;;;;;9.70;4.23;;;;;;;22.51;36.44;101660.16;5007665;28;20393;-80
2022/10/31 09:01:10;;;;;;;8.70;4.80;;;;;;;22.69;36.27;101662.00;5007421;28;20389;-81
2022/10/31 09:03:36;;;;;;;8.20;4.00;;;;;;;22.60;36.75;101668.78;5008260;28;20814;-80
2022/10/31 09:06:02;;;;;;;9.03;4.13;;;;;;;22.72;36.21;101668.81;5008727;28;20431;-79
2022/10/31 09:08:32;;;;;;;7.80;4.05;;;;;;;23.01;35.73;101663.66;5007018;28;20401;-80
2022/10/31 09:10:58;;;;;;;8.73;4.47;;;;;;;22.79;36.13;101666.84;5005859;28;20400;-79
2022/10/31 09:13:24;;;;;;;7.65;3.83;;;;;;;22.55;37.03;101662.41;4984069;28;20411;-80
2022/10/31 09:15:50;;;;;;;9.27;4.60;;;;;;;22.42;38.22;101664.22;4999422;28;20478;-80
2022/10/31 09:18:20;;;;;;;8.25;4.57;;;;;;;22.40;38.12;101655.50;5004625;28;20394;-80
2022/10/31 09:20:47;;;;;;;9.30;4.50;;;;;;;22.46;38.12;101660.00;5007537;28;20389;-83
2022/10/31 09:23:18;;;;;;;8.10;4.72;;;;;;;22.44;38.46;101662.09;5013227;28;20421;-81
2022/10/31 09:25:45;;;;;;;7.93;4.70;;;;;;;22.50;38.28;101657.66;5024445;28;20412;-79
2022/10/31 09:28:14;;;;;;;10.95;4.72;;;;;;;22.62;38.16;101660.44;5010890;28;20385;-79
2022/10/31 09:30:40;;;;;;;10.63;4.78;;;;;;;22.92;37.42;101665.84;5012906;28;20377;-83
2022/10/31 09:33:13;;;;;;;9.25;4.50;;;;;;;23.31;36.41;101671.78;5013322;28;20492;-80
2022/10/31 09:35:39;;;;;;;8.15;4.22;;;;;;;23.20;36.43;101667.97;5011547;28;20381;-80
2022/10/31 09:38:08;;;;;;;6.88;4.30;;;;;;;22.88;37.51;101659.25;5027311;28;20393;-80
2022/10/31 09:40:42;;;;;;;7.82;4.15;;;;;;;22.89;37.79;101671.72;5013017;28;20382;-79
2022/10/31 09:43:14;;;;;;;8.88;4.10;;;;;;;23.22;34.92;101665.03;5013945;28;20448;-81
2022/10/31 09:46:07;;;;;;;10.32;4.30;;;;;;;23.63;35.17;101652.53;5013808;28;20420;-80
2022/10/31 09:49:23;;;;;;;9.50;3.90;;;;;;;23.73;35.32;101650.03;5029465;28;20886;-81
2022/10/31 09:52:02;;;;;;;9.02;3.92;;;;;;;23.48;36.13;101655.69;5010371;28;20394;-80
2022/10/31 09:54:41;;;;;;;8.60;4.28;;;;;;;23.60;35.58;101651.09;5013159;28;21219;-82
2022/10/31 09:57:14;;;;;;;8.30;4.07;;;;;;;23.67;35.70;101645.56;5007799;28;20390;-80
2022/10/31 09:59:47;;;;;;;7.03;3.92;;;;;;;23.90;35.24;101647.50;5016521;28;20377;-79
2022/10/31 10:02:24;;;;;;;7.90;3.90;;;;;;;23.94;35.10;101648.66;5012150;28;20405;-79
2022/10/31 10:05:03;;;;;;;8.57;4.20;;;;;;;23.66;36.50;101646.66;5014925;28;20458;-80
2022/10/31 10:07:32;;;;;;;7.93;3.72;;;;;;;23.60;37.29;101648.38;5014726;28;20398;-80
2022/10/31 10:10:00;;;;;;;8.15;3.90;;;;;;;23.43;38.65;101645.56;4999503;28;20432;-78
2022/10/31 10:12:50;;;;;;;6.50;3.70;;;;;;;23.51;38.07;101640.88;5011392;28;20898;-79
2022/10/31 10:15:36;;;;;;;6.82;4.70;;;;;;;23.72;37.06;101631.34;5016199;28;20846;-80
2022/10/31 10:18:13;;;;;;;10.75;5.60;;;;;;;23.78;36.55;101631.22;5009980;28;20377;-79
2022/10/31 10:21:00;;;;;;;177.13;92.28;;;;;;;23.99;35.57;101624.41;5024049;28;20382;-81
2022/10/31 10:23:41;;;;;;;120.22;65.25;;;;;;;23.89;36.20;101621.47;5005401;28;20587;-79
2022/10/31 10:26:12;;;;;;;47.70;27.05;;;;;;;23.76;36.99;101617.09;4995287;28;20387;-80
2022/10/31 10:28:44;;;;;;;32.00;17.58;;;;;;;23.78;36.97;101606.84;5001991;28;20373;-79
2022/10/31 10:31:31;;;;;;;7.72;3.22;;;;;;;24.05;34.99;101609.91;5004814;28;20391;-80
2022/10/31 10:34:22;;;;;;;8.27;3.45;;;;;;;24.57;33.37;101610.97;5018910;28;20386;-81
2022/10/31 10:36:51;;;;;;;6.93;3.55;;;;;;;24.84;32.36;101604.97;5007387;28;20374;-79
2022/10/31 10:39:35;;;;;;;8.88;4.10;;;;;;;25.06;32.38;101614.03;5007728;28;20397;-81
2022/10/31 10:47:45;;;;;;;7.93;3.95;;;;;;;24.59;35.08;101604.25;4989491;28;20401;-80
2022/10/31 10:50:39;;;;;;;6.47;3.70;;;;;;;24.72;34.02;101605.84;5008860;28;20406;-77
2022/10/31 10:53:36;;;;;;;7.60;3.83;;;;;;;25.02;32.68;101601.22;5041919;28;20416;-80
2022/10/31 10:56:15;;;;;;;8.60;3.70;;;;;;;25.30;31.62;101597.63;5042772;28;20393;-81
2022/10/31 10:58:42;;;;;;;7.43;4.07;;;;;;;25.44;31.44;101603.53;5008322;28;20751;-79
2022/10/31 11:01:15;;;;;;;6.55;3.63;;;;;;;25.57;31.05;101600.50;5008739;28;20390;-79
2022/10/31 11:03:41;;;;;;;7.17;3.40;;;;;;;25.52;30.54;101601.22;5010044;28;20389;-79
2022/10/31 11:06:25;;;;;;;6.28;3.38;;;;;;;25.65;30.30;101593.81;5007568;28;20398;-80
2022/10/31 11:08:52;;;;;;;6.23;3.57;;;;;;;25.93;30.19;101593.69;4998713;28;20389;-79
2022/10/31 11:11:30;;;;;;;4.95;3.17;;;;;;;25.93;30.40;101584.72;5039825;28;20389;-80
2022/10/31 11:14:26;;;;;;;6.68;3.63;;;;;;;25.70;31.41;101589.28;5017425;28;20441;-79
2022/10/31 11:17:07;;;;;;;6.10;3.42;;;;;;;25.63;31.77;101585.91;5002999;28;20410;-80
2022/10/31 11:19:34;;;;;;;8.98;3.58;;;;;;;25.47;32.53;101584.06;5006306;28;20382;-80
2022/10/31 11:22:08;;;;;;;8.02;3.70;;;;;;;25.53;32.36;101574.91;5005664;28;20414;-80
2022/10/31 11:24:39;;;;;;;5.82;3.20;;;;;;;25.57;32.55;101581.50;5006719;28;20390;-79
2022/10/31 11:27:24;;;;;;;7.03;3.45;;;;;;;25.70;31.94;101574.88;5019143;28;20413;-79
2022/10/31 11:29:50;;;;;;;8.05;3.58;;;;;;;25.75;32.37;101570.34;5019092;28;20406;-80
2022/10/31 11:32:46;;;;;;;6.83;3.27;;;;;;;25.52;34.08;101573.28;5005896;28;20478;-81
2022/10/31 11:35:17;;;;;;;5.38;3.33;;;;;;;25.56;33.47;101569.78;5005988;28;20374;-81
2022/10/31 11:37:45;;;;;;;5.37;3.30;;;;;;;25.65;32.76;101558.50;4996934;28;20396;-81
2022/10/31 11:40:25;;;;;;;6.40;3.43;;;;;;;25.99;31.33;101556.53;5006492;28;20398;-80
2022/10/31 11:42:56;;;;;;;6.03;3.40;;;;;;;26.06;31.18;101551.75;4997027;28;20416;-79